createdAt,value
2022-08-12T00:00:09.068Z,102098.91
2022-08-12T00:02:55.006Z,102091.34
2022-08-12T00:06:01.746Z,102091.88
2022-08-12T00:08:48.487Z,102093.97
2022-08-12T00:11:34.051Z,102098.69
2022-08-12T00:14:19.287Z,102107.75
2022-08-12T00:17:05.436Z,102108.72
2022-08-12T00:19:50.863Z,102097.28
2022-08-12T00:22:37.833Z,102093.03
2022-08-12T00:26:01.416Z,102098.19
2022-08-12T00:28:31.414Z,102103.88
2022-08-12T00:31:16.818Z,102099.50
2022-08-12T00:34:02.142Z,102100.63
2022-08-12T00:36:50.190Z,102106.06
2022-08-12T00:39:36.294Z,102104.78
2022-08-12T00:42:11.329Z,102098.88
2022-08-12T00:44:42.258Z,102102.38
2022-08-12T00:47:24.512Z,102108.78
2022-08-12T00:49:55.763Z,102107.47
2022-08-12T00:52:25.143Z,102112.91
2022-08-12T00:54:54.951Z,102106.78
2022-08-12T00:57:29.020Z,102112.09
2022-08-12T00:59:59.291Z,102115.47
2022-08-12T01:02:28.927Z,102116.22
2022-08-12T01:05:18.363Z,102118.41
2022-08-12T01:08:06.064Z,102110.72
2022-08-12T01:10:54.475Z,102112.91
2022-08-12T01:13:24.410Z,102111.97
2022-08-12T01:15:54.527Z,102118.25
2022-08-12T01:18:23.630Z,102116.44
2022-08-12T01:21:04.699Z,102117.13
2022-08-12T01:23:56.360Z,102124.53
2022-08-12T01:26:27.146Z,102114.28
2022-08-12T01:28:58.958Z,102117.88
2022-08-12T01:31:29.376Z,102117.06
2022-08-12T01:34:03.694Z,102115.47
2022-08-12T01:36:41.177Z,102125.25
2022-08-12T01:39:10.250Z,102125.75
2022-08-12T01:41:43.026Z,102128.28
2022-08-12T01:44:20.792Z,102125.53
2022-08-12T01:46:53.585Z,102125.19
2022-08-12T01:49:48.687Z,102127.69
2022-08-12T01:52:28.534Z,102123.47
2022-08-12T01:54:58.758Z,102120.97
2022-08-12T01:57:59.657Z,102122.19
2022-08-12T02:00:55.409Z,102125.94
2022-08-12T02:03:53.412Z,102131.22
2022-08-12T02:06:46.256Z,102129.06
2022-08-12T02:09:34.814Z,102129.06
2022-08-12T02:12:16.121Z,102130.13
2022-08-12T02:14:57.319Z,102130.59
2022-08-12T02:17:55.652Z,102127.38
2022-08-12T02:20:52.005Z,102129.16
2022-08-12T02:23:25.541Z,102131.19
2022-08-12T02:25:57.055Z,102136.47
2022-08-12T02:28:26.234Z,102125.19
2022-08-12T02:30:56.319Z,102124.31
2022-08-12T02:33:25.553Z,102119.38
2022-08-12T02:35:53.886Z,102116.88
2022-08-12T02:38:27.423Z,102111.06
2022-08-12T02:40:57.043Z,102114.94
2022-08-12T02:43:32.095Z,102112.28
2022-08-12T02:46:09.319Z,102114.00
2022-08-12T02:48:47.434Z,102121.09
2022-08-12T02:51:20.573Z,102115.91
2022-08-12T02:54:03.294Z,102111.47
2022-08-12T02:56:36.470Z,102114.13
2022-08-12T02:59:04.882Z,102112.41
2022-08-12T03:01:35.788Z,102113.50
2022-08-12T03:04:21.323Z,102122.88
2022-08-12T03:07:00.692Z,102123.72
2022-08-12T03:09:38.173Z,102121.06
2022-08-12T03:12:24.982Z,102119.50
2022-08-12T03:14:55.583Z,102130.94
2022-08-12T03:17:29.496Z,102127.31
2022-08-12T03:20:09.213Z,102121.31
2022-08-12T03:22:41.147Z,102119.63
2022-08-12T03:25:16.302Z,102124.06
2022-08-12T03:27:55.736Z,102124.19
2022-08-12T03:30:25.995Z,102128.66
2022-08-12T03:32:57.672Z,102136.47
2022-08-12T03:35:41.637Z,102131.66
2022-08-12T03:38:16.125Z,102131.53
2022-08-12T03:41:15.323Z,102132.28
2022-08-12T03:44:06.727Z,102123.22
2022-08-12T03:46:58.168Z,102123.22
2022-08-12T03:49:45.599Z,102126.72
2022-08-12T03:52:31.127Z,102133.59
2022-08-12T03:55:16.801Z,102133.97
2022-08-12T03:58:02.381Z,102140.47
2022-08-12T04:00:31.582Z,102134.81
2022-08-12T04:03:01.704Z,102137.25
2022-08-12T04:05:54.503Z,102137.25
2022-08-12T04:08:24.314Z,102135.88
2022-08-12T04:11:09.814Z,102141.34
2022-08-12T04:13:37.717Z,102133.25
2022-08-12T04:16:07.987Z,102132.91
2022-08-12T04:18:36.488Z,102136.97
2022-08-12T04:21:07.534Z,102143.47
2022-08-12T04:23:36.353Z,102138.66
2022-08-12T04:26:06.754Z,102146.00
2022-08-12T04:28:34.934Z,102155.38
2022-08-12T04:31:04.754Z,102154.88
2022-08-12T04:33:32.750Z,102155.47
2022-08-12T04:36:00.691Z,102151.03
2022-08-12T04:38:31.059Z,102157.50
2022-08-12T04:40:59.252Z,102161.84
2022-08-12T04:43:59.570Z,102164.38
2022-08-12T04:46:17.554Z,102163.44
2022-08-12T04:48:49.024Z,102168.47
2022-08-12T04:51:17.509Z,102168.47
2022-08-12T04:53:48.348Z,102164.84
2022-08-12T04:56:16.856Z,102169.91
2022-08-12T04:58:48.363Z,102176.06
2022-08-12T05:01:18.567Z,102184.84
2022-08-12T05:03:48.226Z,102183.16
2022-08-12T05:06:20.766Z,102183.03
2022-08-12T05:08:57.580Z,102184.72
2022-08-12T05:11:26.323Z,102192.53
2022-08-12T05:14:01.373Z,102187.13
2022-08-12T05:16:34.157Z,102190.50
2022-08-12T05:19:05.495Z,102188.78
2022-08-12T05:21:41.438Z,102190.13
2022-08-12T05:24:11.561Z,102183.59
2022-08-12T05:26:41.050Z,102177.94
2022-08-12T05:30:08.009Z,102169.72
2022-08-12T05:32:03.071Z,102171.16
2022-08-12T05:34:31.452Z,102162.94
2022-08-12T05:36:59.827Z,102165.22
2022-08-12T05:39:29.197Z,102166.41
2022-08-12T05:41:57.806Z,102158.06
2022-08-12T05:44:25.766Z,102162.84
2022-08-12T05:46:53.705Z,102166.56
2022-08-12T05:49:21.780Z,102181.72
2022-08-12T05:51:49.775Z,102178.78
2022-08-12T05:54:21.914Z,102180.81
2022-08-12T05:56:57.090Z,102177.50
2022-08-12T05:59:24.950Z,102186.63
2022-08-12T06:02:11.715Z,102186.53
2022-08-12T06:04:42.020Z,102179.50
2022-08-12T06:08:00.127Z,102178.44
2022-08-12T06:10:02.027Z,102176.53
2022-08-12T06:12:31.528Z,102179.06
2022-08-12T06:15:00.182Z,102181.56
2022-08-12T06:17:30.962Z,102182.41
2022-08-12T06:20:27.331Z,102184.84
2022-08-12T06:22:48.848Z,102186.03
2022-08-12T06:25:21.840Z,102194.13
2022-08-12T06:28:06.455Z,102203.25
2022-08-12T06:30:39.417Z,102197.22
2022-08-12T06:33:22.382Z,102205.34
2022-08-12T06:35:57.287Z,102199.44
2022-08-12T06:38:28.450Z,102201.41
2022-08-12T06:41:15.310Z,102208.41
2022-08-12T06:44:06.364Z,102200.75
2022-08-12T06:46:36.954Z,102202.91
2022-08-12T06:49:06.907Z,102205.88
2022-08-12T06:51:34.915Z,102207.28
2022-08-12T06:54:03.359Z,102201.97
2022-08-12T06:57:01.777Z,102211.00
2022-08-12T06:59:21.631Z,102209.19
2022-08-12T07:01:51.577Z,102208.19
2022-08-12T07:04:38.380Z,102204.25
2022-08-12T07:07:08.245Z,102205.78
2022-08-12T07:10:06.983Z,102200.88
2022-08-12T07:12:36.537Z,102209.50
2022-08-12T07:15:06.756Z,102213.97
2022-08-12T07:17:37.734Z,102219.31
2022-08-12T07:20:29.845Z,102217.03
2022-08-12T07:23:00.416Z,102217.63
2022-08-12T07:25:40.509Z,102223.53
2022-08-12T07:28:13.527Z,102217.00
2022-08-12T07:30:48.546Z,102222.28
2022-08-12T07:33:17.910Z,102219.44
2022-08-12T07:35:48.533Z,102226.63
2022-08-12T07:38:28.981Z,102228.38
2022-08-12T07:41:03.334Z,102231.56
2022-08-12T07:43:31.903Z,102234.94
2022-08-12T07:46:02.888Z,102228.06
2022-08-12T07:48:37.054Z,102229.88
2022-08-12T07:51:05.346Z,102232.72
2022-08-12T07:53:33.311Z,102239.28
2022-08-12T07:56:16.884Z,102240.44
2022-08-12T07:58:47.236Z,102242.25
2022-08-12T08:01:17.634Z,102239.38
2022-08-12T08:04:02.859Z,102243.25
2022-08-12T08:06:32.423Z,102245.22
2022-08-12T08:09:01.385Z,102245.94
2022-08-12T08:11:47.229Z,102246.81
2022-08-12T08:14:15.643Z,102244.00
2022-08-12T08:16:46.413Z,102244.84
2022-08-12T08:19:19.269Z,102244.53
2022-08-12T08:21:47.368Z,102248.88
2022-08-12T08:24:18.307Z,102241.00
2022-08-12T08:26:48.535Z,102240.97
2022-08-12T08:29:16.764Z,102248.81
2022-08-12T08:31:50.967Z,102252.34
2022-08-12T08:34:33.482Z,102253.59
2022-08-12T08:37:10.688Z,102261.78
2022-08-12T08:39:43.586Z,102262.50
2022-08-12T08:42:29.076Z,102262.91
2022-08-12T08:44:58.860Z,102262.50
2022-08-12T08:47:28.210Z,102270.22
2022-08-12T08:50:01.258Z,102272.59
2022-08-12T08:52:39.915Z,102264.56
2022-08-12T08:55:10.407Z,102267.94
2022-08-12T08:57:43.403Z,102272.44
2022-08-12T09:00:15.438Z,102267.09
2022-08-12T09:02:49.516Z,102267.25
2022-08-12T09:05:27.115Z,102271.22
2022-08-12T09:10:44.931Z,102276.78
2022-08-12T09:14:11.803Z,102274.84
2022-08-12T09:16:23.122Z,102282.19
2022-08-12T09:18:53.254Z,102277.00
2022-08-12T09:21:23.103Z,102276.16
2022-08-12T09:23:59.789Z,102268.81
2022-08-12T09:26:38.223Z,102275.47
2022-08-12T09:29:15.592Z,102272.47
2022-08-12T09:32:03.373Z,102287.69
2022-08-12T09:34:36.428Z,102271.69
2022-08-12T09:37:19.518Z,102273.25
2022-08-12T09:40:05.720Z,102274.66
2022-08-12T09:43:16.018Z,102269.81
2022-08-12T09:46:06.328Z,102261.16
2022-08-12T09:48:39.883Z,102262.31
2022-08-12T09:51:17.060Z,102270.88
2022-08-12T09:54:09.209Z,102265.69
2022-08-12T09:56:59.943Z,102271.38
2022-08-12T10:00:12.819Z,102274.94
2022-08-12T10:02:44.845Z,102264.28
2022-08-12T10:05:04.791Z,102277.59
2022-08-12T10:07:40.348Z,102264.22
2022-08-12T10:10:23.089Z,102262.97
2022-08-12T10:13:13.475Z,102262.59
2022-08-12T10:16:01.944Z,102259.00
2022-08-12T10:18:35.284Z,102260.81
2022-08-12T10:21:07.507Z,102255.47
2022-08-12T10:23:39.944Z,102257.81
2022-08-12T10:26:37.945Z,102255.31
2022-08-12T10:30:03.195Z,102260.66
2022-08-12T10:32:42.885Z,102268.91
2022-08-12T10:35:09.940Z,102265.91
2022-08-12T10:38:38.402Z,102265.75
2022-08-12T10:40:32.039Z,102264.84
2022-08-12T10:43:18.636Z,102259.00
2022-08-12T10:45:47.211Z,102260.81
2022-08-12T10:48:21.469Z,102265.69
2022-08-12T10:50:56.655Z,102263.06
2022-08-12T10:53:45.758Z,102264.78
2022-08-12T10:56:17.000Z,102260.59
2022-08-12T10:58:47.129Z,102261.25
2022-08-12T11:04:14.279Z,102253.75
2022-08-12T11:04:18.991Z,102254.44
2022-08-12T11:07:05.356Z,102258.66
2022-08-12T11:10:00.625Z,102259.78
2022-08-12T11:12:54.559Z,102248.06
2022-08-12T11:15:32.994Z,102246.56
2022-08-12T11:18:17.815Z,102241.53
2022-08-12T11:20:48.137Z,102239.41
2022-08-12T11:23:36.145Z,102247.09
2022-08-12T11:26:06.329Z,102245.66
2022-08-12T11:28:37.516Z,102240.75
2022-08-12T11:31:11.914Z,102235.91
2022-08-12T11:34:06.465Z,102232.38
2022-08-12T11:36:29.736Z,102238.78
2022-08-12T11:38:58.839Z,102233.59
2022-08-12T11:41:32.811Z,102229.72
2022-08-12T11:44:36.320Z,102228.09
2022-08-12T11:46:52.870Z,102233.94
2022-08-12T11:49:30.969Z,102231.25
2022-08-12T11:52:03.787Z,102231.59
2022-08-12T11:54:32.149Z,102231.06
2022-08-12T11:58:07.593Z,102228.09
2022-08-12T12:02:39.936Z,102232.09
2022-08-12T12:05:08.834Z,102234.44
2022-08-12T12:08:37.533Z,102229.72
2022-08-12T12:10:27.519Z,102230.03
2022-08-12T12:12:55.382Z,102232.22
2022-08-12T12:15:40.915Z,102233.75
2022-08-12T12:18:22.338Z,102234.25
2022-08-12T12:20:56.949Z,102228.88
2022-08-12T12:23:29.124Z,102234.72
2022-08-12T12:25:59.409Z,102237.97
2022-08-12T12:28:36.797Z,102233.44
2022-08-12T12:31:15.053Z,102235.94
2022-08-12T12:33:58.033Z,102232.94
2022-08-12T12:36:29.770Z,102231.41
2022-08-12T12:38:58.290Z,102236.13
2022-08-12T12:42:40.596Z,102232.94
2022-08-12T12:44:26.134Z,102234.09
2022-08-12T12:47:29.303Z,102234.25
2022-08-12T12:49:54.042Z,102236.78
2022-08-12T12:52:26.784Z,102236.94
2022-08-12T12:54:58.617Z,102233.75
2022-08-12T12:57:59.375Z,102239.09
2022-08-12T13:00:16.661Z,102239.44
2022-08-12T13:02:53.994Z,102231.91
2022-08-12T13:05:28.005Z,102236.75
2022-08-12T13:08:00.806Z,102244.78
2022-08-12T13:10:36.453Z,102242.94
2022-08-12T13:14:08.614Z,102236.25
2022-08-12T13:15:53.977Z,102238.59
2022-08-12T13:18:36.406Z,102236.25
2022-08-12T13:21:05.755Z,102228.88
2022-08-12T13:23:46.505Z,102233.22
2022-08-12T13:26:17.304Z,102231.16
2022-08-12T13:28:49.631Z,102231.97
2022-08-12T13:31:22.342Z,102228.59
2022-08-12T13:34:34.183Z,102227.97
2022-08-12T13:36:43.165Z,102230.66
2022-08-12T13:39:12.653Z,102230.31
2022-08-12T13:41:44.613Z,102223.22
2022-08-12T13:44:13.054Z,102223.06
2022-08-12T13:46:42.244Z,102225.06
2022-08-12T13:49:17.674Z,102230.44
2022-08-12T13:52:01.630Z,102224.22
2022-08-12T13:54:29.795Z,102226.91
2022-08-12T13:56:58.116Z,102225.91
2022-08-12T13:59:26.632Z,102224.88
2022-08-12T14:01:56.694Z,102212.16
2022-08-12T14:04:27.353Z,102221.72
2022-08-12T14:06:55.442Z,102215.84
2022-08-12T14:09:23.413Z,102220.91
2022-08-12T14:11:59.516Z,102225.28
2022-08-12T14:14:31.309Z,102232.31
2022-08-12T14:17:05.189Z,102233.16
2022-08-12T14:19:39.226Z,102238.03
2022-08-12T14:22:19.287Z,102236.38
2022-08-12T14:24:47.227Z,102245.41
2022-08-12T14:27:15.197Z,102246.44
2022-08-12T14:30:17.278Z,102241.06
2022-08-12T14:32:53.875Z,102247.78
2022-08-12T14:35:24.503Z,102257.50
2022-08-12T14:37:57.203Z,102240.75
2022-08-12T14:40:28.016Z,102257.38
2022-08-12T14:42:57.269Z,102258.38
2022-08-12T14:45:44.448Z,102251.84
2022-08-12T14:48:15.846Z,102254.88
2022-08-12T14:52:07.931Z,102260.06
2022-08-12T14:59:56.864Z,102264.78
2022-08-12T15:02:20.741Z,102270.28
2022-08-12T15:04:55.960Z,102270.16
2022-08-12T15:07:43.605Z,102264.25
2022-08-12T15:10:15.037Z,102279.72
2022-08-12T15:13:00.027Z,102279.72
2022-08-12T15:15:32.538Z,102277.38
2022-08-12T15:18:02.484Z,102282.53
2022-08-12T15:20:37.713Z,102280.03
2022-08-12T15:23:18.023Z,102288.06
2022-08-12T15:26:02.937Z,102279.38
2022-08-12T15:28:33.346Z,102281.03
2022-08-12T15:31:02.385Z,102284.91
2022-08-12T15:33:45.102Z,102282.22
2022-08-12T15:36:19.566Z,102290.91
2022-08-12T15:39:04.502Z,102295.41
2022-08-12T15:41:49.085Z,102289.72
2022-08-12T15:44:38.692Z,102291.53
2022-08-12T15:47:06.925Z,102289.50
2022-08-12T15:49:54.199Z,102292.34
2022-08-12T15:52:28.963Z,102297.34
2022-08-12T15:55:06.477Z,102300.34
2022-08-12T15:57:40.115Z,102302.00
2022-08-12T16:00:31.846Z,102309.34
2022-08-12T16:02:59.052Z,102294.63
2022-08-12T16:06:17.080Z,102296.09
2022-08-12T16:08:24.012Z,102309.13
2022-08-12T16:10:57.623Z,102295.38
2022-08-12T16:13:34.526Z,102298.91
2022-08-12T16:16:12.220Z,102302.22
2022-08-12T16:18:51.452Z,102304.34
2022-08-12T16:21:50.510Z,102305.50
2022-08-12T16:24:08.542Z,102311.75
2022-08-12T16:26:40.777Z,102302.84
2022-08-12T16:29:15.918Z,102308.44
2022-08-12T16:31:44.840Z,102312.09
2022-08-12T16:34:25.721Z,102314.09
2022-08-12T16:37:07.330Z,102310.41
2022-08-12T16:39:59.516Z,102304.34
2022-08-12T16:42:28.256Z,102310.31
2022-08-12T16:44:57.063Z,102302.75
2022-08-12T16:47:27.163Z,102305.75
2022-08-12T16:49:55.663Z,102304.09
2022-08-12T16:52:24.267Z,102302.53
2022-08-12T16:54:52.991Z,102300.50
2022-08-12T16:57:34.784Z,102301.34
2022-08-12T17:00:17.044Z,102298.28
2022-08-12T17:02:50.716Z,102303.44
2022-08-12T17:05:25.328Z,102305.03
2022-08-12T17:08:01.230Z,102306.03
2022-08-12T17:10:36.418Z,102305.69
2022-08-12T17:13:10.037Z,102307.66
2022-08-12T17:15:57.656Z,102307.56
2022-08-12T17:18:42.383Z,102310.84
2022-08-12T17:21:17.259Z,102308.63
2022-08-12T17:23:53.489Z,102314.06
2022-08-12T17:26:22.824Z,102320.31
2022-08-12T17:28:57.864Z,102319.47
2022-08-12T17:32:01.713Z,102320.38
2022-08-12T17:34:38.661Z,102324.50
2022-08-12T17:37:07.315Z,102315.88
2022-08-12T17:40:12.282Z,102328.22
2022-08-12T17:42:34.696Z,102329.44
2022-08-12T17:45:18.040Z,102323.66
2022-08-12T17:48:04.490Z,102332.31
2022-08-12T17:50:34.340Z,102337.41
2022-08-12T17:53:03.558Z,102337.97
2022-08-12T17:55:40.402Z,102343.25
2022-08-12T17:58:13.989Z,102339.59
2022-08-12T18:00:45.588Z,102336.53
2022-08-12T18:04:05.734Z,102334.44
2022-08-12T18:06:13.729Z,102345.69
2022-08-12T18:08:53.631Z,102344.31
2022-08-12T18:12:03.698Z,102352.91
2022-08-12T18:14:29.974Z,102353.16
2022-08-12T18:17:00.766Z,102347.81
2022-08-12T18:20:03.790Z,102350.38
2022-08-12T18:22:30.622Z,102352.59
2022-08-12T18:25:02.755Z,102357.53
2022-08-12T18:27:44.832Z,102356.97
2022-08-12T18:30:20.753Z,102367.91
2022-08-12T18:33:03.670Z,102366.22
2022-08-12T18:35:46.929Z,102366.75
2022-08-12T18:38:21.155Z,102375.72
2022-08-12T18:41:09.722Z,102370.22
2022-08-12T18:43:58.898Z,102373.69
2022-08-12T18:46:35.008Z,102376.47
2022-08-12T18:49:17.995Z,102376.06
2022-08-12T18:51:55.034Z,102383.03
2022-08-12T18:54:33.416Z,102382.44
2022-08-12T18:57:05.086Z,102384.66
2022-08-12T19:00:02.366Z,102386.56
2022-08-12T19:02:23.388Z,102385.44
2022-08-12T19:04:53.532Z,102385.69
2022-08-12T19:07:29.680Z,102382.72
2022-08-12T19:10:14.278Z,102389.06
2022-08-12T19:13:00.782Z,102386.78
2022-08-12T19:15:30.002Z,102387.56
2022-08-12T19:18:02.564Z,102388.09
2022-08-12T19:20:35.841Z,102389.47
2022-08-12T19:23:15.918Z,102395.16
2022-08-12T19:26:00.188Z,102394.13
2022-08-12T19:28:36.372Z,102396.13
2022-08-12T19:31:55.290Z,102400.13
2022-08-12T19:34:56.434Z,102398.34
2022-08-12T19:37:20.385Z,102402.00
2022-08-12T19:40:09.317Z,102405.03
2022-08-12T19:42:44.295Z,102414.19
2022-08-12T19:45:15.674Z,102413.25
2022-08-12T19:47:46.947Z,102412.41
2022-08-12T19:50:19.649Z,102405.41
2022-08-12T19:52:51.275Z,102405.44
2022-08-12T19:55:27.298Z,102408.72
2022-08-12T19:58:01.708Z,102405.94
2022-08-12T20:00:30.872Z,102403.28
2022-08-12T20:03:00.906Z,102399.09
2022-08-12T20:06:05.076Z,102402.09
2022-08-12T20:08:31.369Z,102401.75
2022-08-12T20:12:14.315Z,102398.88
2022-08-12T20:14:00.264Z,102412.13
2022-08-12T20:19:52.086Z,102407.31
2022-08-12T20:22:24.309Z,102400.56
2022-08-12T20:25:01.241Z,102404.44
2022-08-12T20:28:05.136Z,102395.44
2022-08-12T20:30:37.923Z,102398.59
2022-08-12T20:33:17.439Z,102400.25
2022-08-12T20:36:07.066Z,102399.44
2022-08-12T20:38:42.169Z,102409.56
2022-08-12T20:41:16.421Z,102404.72
2022-08-12T20:43:50.415Z,102408.56
2022-08-12T20:46:19.328Z,102403.63
2022-08-12T20:48:55.127Z,102398.44
2022-08-12T20:51:27.757Z,102394.31
2022-08-12T20:53:59.071Z,102405.38
2022-08-12T20:56:34.683Z,102408.75
2022-08-12T20:59:07.118Z,102409.69
2022-08-12T21:01:46.417Z,102401.03
2022-08-12T21:04:34.884Z,102407.28
2022-08-12T21:07:09.411Z,102404.03
2022-08-12T21:09:41.999Z,102402.31
2022-08-12T21:12:27.293Z,102399.78
2022-08-12T21:15:17.037Z,102397.38
2022-08-12T21:18:08.056Z,102400.47
2022-08-12T21:20:38.572Z,102400.81
2022-08-12T21:23:07.596Z,102398.41
2022-08-12T21:25:45.109Z,102398.81
2022-08-12T21:28:14.561Z,102392.19
2022-08-12T21:31:11.137Z,102392.63
2022-08-12T21:33:58.903Z,102398.28
2022-08-12T21:36:32.429Z,102401.16
2022-08-12T21:39:19.258Z,102402.44
2022-08-12T21:41:51.576Z,102402.91
2022-08-12T21:44:24.080Z,102396.81
2022-08-12T21:47:20.404Z,102405.56
2022-08-12T21:50:04.108Z,102407.41
2022-08-12T21:52:36.572Z,102400.50
2022-08-12T21:55:07.974Z,102392.78
2022-08-12T21:57:50.532Z,102393.88
2022-08-12T22:00:33.135Z,102389.31
2022-08-12T22:04:11.179Z,102388.78
2022-08-12T22:06:26.233Z,102391.97
2022-08-12T22:09:02.593Z,102386.09
2022-08-12T22:11:41.150Z,102381.72
2022-08-12T22:14:21.442Z,102388.31
2022-08-12T22:16:51.502Z,102387.69
2022-08-12T22:19:21.450Z,102388.88
2022-08-12T22:21:53.555Z,102384.75
2022-08-12T22:24:26.606Z,102375.44
2022-08-12T22:27:14.616Z,102377.34
2022-08-12T22:30:07.669Z,102382.13
2022-08-12T22:32:41.728Z,102376.38
2022-08-12T22:35:29.740Z,102379.59
2022-08-12T22:38:19.729Z,102377.25
2022-08-12T22:40:48.208Z,102374.06
2022-08-12T22:43:34.391Z,102379.56
2022-08-12T22:46:20.660Z,102384.97
2022-08-12T22:48:50.571Z,102382.53
2022-08-12T22:51:24.033Z,102382.75
2022-08-12T22:53:54.499Z,102375.56
2022-08-12T22:56:31.039Z,102380.97
2022-08-12T22:59:02.811Z,102378.31
2022-08-12T23:01:52.022Z,102376.41
2022-08-12T23:04:26.242Z,102382.97
2022-08-12T23:07:05.193Z,102380.63
2022-08-12T23:09:48.638Z,102384.13
2022-08-12T23:12:40.983Z,102384.34
2022-08-12T23:15:13.414Z,102382.00
2022-08-12T23:17:42.726Z,102383.16
2022-08-12T23:20:12.985Z,102386.97
2022-08-12T23:22:43.995Z,102382.94
2022-08-12T23:25:32.658Z,102385.91
2022-08-12T23:28:36.342Z,102390.63
2022-08-12T23:31:06.506Z,102384.84
2022-08-12T23:34:01.876Z,102387.38
2022-08-12T23:36:39.100Z,102387.59
2022-08-12T23:40:15.377Z,102384.41
2022-08-12T23:42:16.918Z,102391.47
2022-08-12T23:44:48.569Z,102387.25
2022-08-12T23:47:20.701Z,102390.63
2022-08-12T23:49:58.211Z,102379.22
2022-08-12T23:52:34.015Z,102385.47
2022-08-12T23:55:24.845Z,102379.41
2022-08-12T23:58:20.826Z,102385.00
